createdAt,value
2022-08-17T00:00:42.709Z,99101.00
2022-08-17T00:03:15.054Z,99092.00
2022-08-17T00:05:47.833Z,99092.00
2022-08-17T00:08:20.742Z,99081.00
2022-08-17T00:10:54.227Z,99093.00
2022-08-17T00:13:27.997Z,99096.00
2022-08-17T00:16:00.879Z,99100.00
2022-08-17T00:19:01.182Z,99102.00
2022-08-17T00:21:25.585Z,99104.00
2022-08-17T00:23:57.346Z,99101.00
2022-08-17T00:26:37.496Z,99102.00
2022-08-17T00:29:17.896Z,99104.00
2022-08-17T00:31:50.094Z,99100.00
2022-08-17T00:34:21.388Z,99102.00
2022-08-17T00:36:50.780Z,99104.00
2022-08-17T00:39:20.215Z,99107.00
2022-08-17T00:41:51.028Z,99108.00
2022-08-17T00:44:19.102Z,99098.00
2022-08-17T00:46:47.931Z,99100.00
2022-08-17T00:49:19.979Z,99103.00
2022-08-17T00:51:56.029Z,99106.00
2022-08-17T00:54:30.893Z,99103.00
2022-08-17T00:57:05.507Z,99099.00
2022-08-17T00:59:42.764Z,99098.00
2022-08-17T01:02:15.298Z,99098.00
2022-08-17T01:04:45.948Z,99099.00
2022-08-17T01:07:15.945Z,99092.00
2022-08-17T01:09:45.067Z,99092.00
2022-08-17T01:12:14.463Z,99099.00
2022-08-17T01:14:42.886Z,99109.00
2022-08-17T01:17:11.388Z,99111.00
2022-08-17T01:19:42.647Z,99108.00
2022-08-17T01:22:21.913Z,99110.00
2022-08-17T01:24:54.087Z,99107.00
2022-08-17T01:27:22.849Z,99112.00
2022-08-17T01:29:59.275Z,99111.00
2022-08-17T01:32:30.363Z,99114.00
2022-08-17T01:35:00.588Z,99115.00
2022-08-17T01:37:35.578Z,99110.00
2022-08-17T01:40:10.045Z,99112.00
2022-08-17T01:42:44.190Z,99110.00
2022-08-17T01:45:16.767Z,99106.00
2022-08-17T01:47:45.689Z,99113.00
2022-08-17T01:50:19.185Z,99112.00
2022-08-17T01:52:52.250Z,99091.00
2022-08-17T01:55:30.540Z,99102.00
2022-08-17T01:57:59.175Z,99106.00
2022-08-17T02:00:47.265Z,99105.00
2022-08-17T02:03:18.198Z,99106.00
2022-08-17T02:05:47.993Z,99100.00
2022-08-17T02:08:20.379Z,99098.00
2022-08-17T02:10:49.787Z,99101.00
2022-08-17T02:13:20.514Z,99095.00
2022-08-17T02:15:48.620Z,99103.00
2022-08-17T02:18:17.579Z,99094.00
2022-08-17T02:20:45.475Z,99098.00
2022-08-17T02:23:14.554Z,99104.00
2022-08-17T02:25:47.672Z,99099.00
2022-08-17T02:28:17.646Z,99100.00
2022-08-17T02:31:00.006Z,99101.00
2022-08-17T02:33:42.164Z,99096.00
2022-08-17T02:36:13.460Z,99097.00
2022-08-17T02:38:42.381Z,99092.00
2022-08-17T02:41:12.974Z,99089.00
2022-08-17T02:43:41.222Z,99091.00
2022-08-17T02:46:09.484Z,99084.00
2022-08-17T02:48:37.568Z,99088.00
2022-08-17T02:51:05.514Z,99085.00
2022-08-17T02:53:35.936Z,99086.00
2022-08-17T02:56:05.272Z,99076.00
2022-08-17T02:58:35.984Z,99075.00
2022-08-17T03:01:07.715Z,99080.00
2022-08-17T03:03:38.641Z,99074.00
2022-08-17T03:06:08.533Z,99075.00
2022-08-17T03:08:38.034Z,99080.00
2022-08-17T03:11:06.498Z,99081.00
2022-08-17T03:13:35.717Z,99074.00
2022-08-17T03:16:03.928Z,99074.00
2022-08-17T03:18:32.310Z,99079.00
2022-08-17T03:21:04.294Z,99075.00
2022-08-17T03:23:33.691Z,99079.00
2022-08-17T03:26:02.214Z,99075.00
2022-08-17T03:28:30.389Z,99080.00
2022-08-17T03:30:59.623Z,99087.00
2022-08-17T03:33:27.602Z,99087.00
2022-08-17T03:35:55.674Z,99064.00
2022-08-17T03:38:23.602Z,99072.00
2022-08-17T03:40:57.314Z,99072.00
2022-08-17T03:43:30.297Z,99073.00
2022-08-17T03:46:34.017Z,99077.00
2022-08-17T03:49:22.788Z,99076.00
2022-08-17T03:52:08.318Z,99075.00
2022-08-17T03:54:53.833Z,99079.00
2022-08-17T03:57:21.837Z,99075.00
2022-08-17T03:59:49.843Z,99069.00
2022-08-17T04:02:24.285Z,99072.00
2022-08-17T04:04:52.768Z,99080.00
2022-08-17T04:07:22.770Z,99076.00
2022-08-17T04:09:51.448Z,99069.00
2022-08-17T04:12:23.337Z,99089.00
2022-08-17T04:14:54.385Z,99083.00
2022-08-17T04:17:28.656Z,99081.00
2022-08-17T04:19:58.010Z,99080.00
2022-08-17T04:22:33.378Z,99084.00
2022-08-17T04:25:10.335Z,99094.00
2022-08-17T04:27:38.257Z,99084.00
2022-08-17T04:30:08.197Z,99098.00
2022-08-17T04:35:39.042Z,99091.00
2022-08-17T04:38:09.519Z,99108.00
2022-08-17T04:40:55.678Z,99103.00
2022-08-17T04:43:27.297Z,99106.00
2022-08-17T04:45:58.513Z,99116.00
2022-08-17T04:48:36.653Z,99102.00
2022-08-17T04:51:12.184Z,99102.00
2022-08-17T04:53:43.078Z,99108.00
2022-08-17T04:56:16.725Z,99112.00
2022-08-17T04:58:47.843Z,99110.00
2022-08-17T05:01:17.250Z,99112.00
2022-08-17T05:03:52.205Z,99107.00
2022-08-17T05:06:22.014Z,99122.00
2022-08-17T05:08:50.228Z,99127.00
2022-08-17T05:11:18.950Z,99114.00
2022-08-17T05:13:49.970Z,99123.00
2022-08-17T05:16:19.474Z,99117.00
2022-08-17T05:18:48.054Z,99108.00
2022-08-17T05:21:16.577Z,99123.00
2022-08-17T05:23:50.285Z,99126.00
2022-08-17T05:26:26.051Z,99123.00
2022-08-17T05:29:00.344Z,99131.00
2022-08-17T05:31:30.665Z,99129.00
2022-08-17T05:33:59.507Z,99124.00
2022-08-17T05:36:42.576Z,99134.00
2022-08-17T05:39:16.164Z,99135.00
2022-08-17T05:41:48.552Z,99129.00
2022-08-17T05:44:17.399Z,99138.00
2022-08-17T05:46:51.724Z,99136.00
2022-08-17T05:49:28.004Z,99137.00
2022-08-17T05:52:23.928Z,99136.00
2022-08-17T05:55:14.740Z,99124.00
2022-08-17T05:57:59.855Z,99132.00
2022-08-17T06:00:34.869Z,99134.00
2022-08-17T06:03:36.951Z,99133.00
2022-08-17T06:06:25.211Z,99138.00
2022-08-17T06:09:25.752Z,99134.00
2022-08-17T06:12:21.467Z,99110.00
2022-08-17T06:15:12.739Z,99120.00
2022-08-17T06:17:42.026Z,99140.00
2022-08-17T06:20:14.988Z,99134.00
2022-08-17T06:22:49.541Z,99137.00
2022-08-17T06:25:27.508Z,99129.00
2022-08-17T06:28:03.723Z,99140.00
2022-08-17T06:31:00.650Z,99145.00
2022-08-17T06:33:36.983Z,99152.00
2022-08-17T06:36:28.040Z,99145.00
2022-08-17T06:39:10.639Z,99141.00
2022-08-17T06:41:52.043Z,99146.00
2022-08-17T06:44:43.336Z,99142.00
2022-08-17T06:47:28.436Z,99146.00
2022-08-17T06:50:09.864Z,99148.00
2022-08-17T06:52:47.839Z,99142.00
2022-08-17T06:55:22.474Z,99136.00
2022-08-17T06:58:05.809Z,99143.00
2022-08-17T07:00:48.537Z,99147.00
2022-08-17T07:03:30.230Z,99142.00
2022-08-17T07:06:04.136Z,99147.00
2022-08-17T07:08:48.181Z,99152.00
2022-08-17T07:11:21.954Z,99149.00
2022-08-17T07:14:04.298Z,99142.00
2022-08-17T07:16:42.117Z,99147.00
2022-08-17T07:19:10.876Z,99143.00
2022-08-17T07:21:52.655Z,99150.00
2022-08-17T07:24:37.308Z,99148.00
2022-08-17T07:27:14.492Z,99148.00
2022-08-17T07:29:50.480Z,99147.00
2022-08-17T07:32:26.395Z,99147.00
2022-08-17T07:35:15.422Z,99123.00
2022-08-17T07:37:53.043Z,99145.00
2022-08-17T07:40:34.179Z,99147.00
2022-08-17T07:43:23.484Z,99150.00
2022-08-17T07:46:35.116Z,99147.00
2022-08-17T07:49:34.651Z,99145.00
2022-08-17T07:52:24.162Z,99147.00
2022-08-17T07:54:57.617Z,99146.00
2022-08-17T07:57:36.405Z,99146.00
2022-08-17T08:00:27.281Z,99149.00
2022-08-17T08:03:27.103Z,99137.00
2022-08-17T08:06:02.004Z,99149.00
2022-08-17T08:08:35.296Z,99147.00
2022-08-17T08:11:09.782Z,99151.00
2022-08-17T08:13:42.717Z,99158.00
2022-08-17T08:16:25.820Z,99152.00
2022-08-17T08:18:58.579Z,99150.00
2022-08-17T08:21:47.184Z,99145.00
2022-08-17T08:24:57.260Z,99150.00
2022-08-17T08:27:41.769Z,99149.00
2022-08-17T08:30:15.620Z,99134.00
2022-08-17T08:33:08.952Z,99156.00
2022-08-17T08:35:47.607Z,99152.00
2022-08-17T08:38:34.458Z,99152.00
2022-08-17T08:41:22.807Z,99143.00
2022-08-17T08:44:06.528Z,99138.00
2022-08-17T08:46:47.193Z,99159.00
2022-08-17T08:50:02.546Z,99159.00
2022-08-17T08:52:55.252Z,99154.00
2022-08-17T08:55:44.824Z,99135.00
2022-08-17T08:58:31.854Z,99154.00
2022-08-17T09:01:25.541Z,99160.00
2022-08-17T09:04:27.627Z,99154.00
2022-08-17T09:07:12.912Z,99157.00
2022-08-17T09:09:59.369Z,99159.00
2022-08-17T09:12:42.592Z,99154.00
2022-08-17T09:15:18.382Z,99150.00
2022-08-17T09:18:28.465Z,99151.00
2022-08-17T09:20:55.919Z,99161.00
2022-08-17T09:23:35.140Z,99155.00
2022-08-17T09:26:14.413Z,99148.00
2022-08-17T09:28:51.618Z,99150.00
2022-08-17T09:31:26.776Z,99156.00
2022-08-17T09:34:01.343Z,99151.00
2022-08-17T09:36:35.533Z,99140.00
2022-08-17T09:39:11.896Z,99151.00
2022-08-17T09:41:51.178Z,99144.00
2022-08-17T09:44:32.024Z,99146.00
2022-08-17T09:47:08.412Z,99147.00
2022-08-17T09:49:44.158Z,99161.00
2022-08-17T09:52:22.358Z,99147.00
2022-08-17T09:54:54.159Z,99143.00
2022-08-17T09:57:50.365Z,99149.00
2022-08-17T10:00:27.096Z,99140.00
2022-08-17T10:03:26.146Z,99145.00
2022-08-17T10:06:06.597Z,99132.00
2022-08-17T10:08:44.108Z,99143.00
2022-08-17T10:11:52.563Z,99135.00
2022-08-17T10:14:37.607Z,99134.00
2022-08-17T10:17:24.608Z,99131.00
2022-08-17T10:20:04.172Z,99134.00
2022-08-17T10:23:00.306Z,99118.00
2022-08-17T10:25:55.255Z,99108.00
2022-08-17T10:28:39.351Z,99116.00
2022-08-17T10:34:41.119Z,99119.00
2022-08-17T10:37:33.010Z,99112.00
2022-08-17T10:40:23.549Z,99117.00
2022-08-17T10:43:05.356Z,99107.00
2022-08-17T10:45:47.844Z,99113.00
2022-08-17T10:48:36.518Z,99111.00
2022-08-17T10:51:10.150Z,99105.00
2022-08-17T10:53:57.691Z,99105.00
2022-08-17T10:56:50.446Z,99110.00
2022-08-17T10:59:50.415Z,99109.00
2022-08-17T11:02:29.248Z,99092.00
2022-08-17T11:05:18.693Z,99085.00
2022-08-17T11:08:17.377Z,99100.00
2022-08-17T11:11:07.548Z,99086.00
2022-08-17T11:13:48.405Z,99094.00
2022-08-17T11:16:41.088Z,99103.00
2022-08-17T11:19:39.679Z,99108.00
2022-08-17T11:22:43.165Z,99113.00
2022-08-17T11:25:18.508Z,99106.00
2022-08-17T11:27:53.531Z,99105.00
2022-08-17T11:30:48.731Z,99103.00
2022-08-17T11:33:59.645Z,99105.00
2022-08-17T11:37:23.474Z,99083.00
2022-08-17T11:40:37.081Z,99088.00
2022-08-17T11:43:49.769Z,99085.00
2022-08-17T11:46:51.871Z,99078.00
2022-08-17T11:49:55.052Z,99088.00
2022-08-17T11:52:46.000Z,99060.00
2022-08-17T11:56:05.900Z,99085.00
2022-08-17T11:58:42.642Z,99074.00
2022-08-17T12:01:16.177Z,99074.00
2022-08-17T12:03:55.941Z,99072.00
2022-08-17T12:06:43.169Z,99041.00
2022-08-17T12:09:19.859Z,99067.00
2022-08-17T12:12:13.288Z,99065.00
2022-08-17T12:17:40.434Z,99068.00
2022-08-17T12:20:17.145Z,99061.00
2022-08-17T12:22:54.892Z,99063.00
2022-08-17T12:25:33.876Z,99070.00
2022-08-17T12:28:06.523Z,99039.00
2022-08-17T12:30:37.134Z,99065.00
2022-08-17T12:33:25.382Z,99044.00
2022-08-17T12:36:02.740Z,99058.00
2022-08-17T12:38:34.844Z,99063.00
2022-08-17T12:41:26.331Z,99059.00
2022-08-17T12:44:02.055Z,99057.00
2022-08-17T12:46:34.819Z,99055.00
2022-08-17T12:49:22.638Z,99047.00
2022-08-17T12:51:54.971Z,99025.00
2022-08-17T12:54:32.335Z,99052.00
2022-08-17T12:57:11.838Z,99039.00
2022-08-17T12:59:47.166Z,99053.00
2022-08-17T13:02:42.968Z,99057.00
2022-08-17T13:05:23.461Z,99060.00
2022-08-17T13:07:53.111Z,99059.00
2022-08-17T13:10:32.465Z,99070.00
2022-08-17T13:13:05.822Z,99073.00
2022-08-17T13:15:52.430Z,99070.00
2022-08-17T13:18:44.623Z,99079.00
2022-08-17T13:21:26.832Z,99071.00
2022-08-17T13:23:58.706Z,99065.00
2022-08-17T13:26:33.316Z,99065.00
2022-08-17T13:29:03.319Z,99063.00
2022-08-17T13:31:52.052Z,99056.00
2022-08-17T13:34:41.129Z,99054.00
2022-08-17T13:37:32.810Z,99054.00
2022-08-17T13:40:25.627Z,99060.00
2022-08-17T13:42:56.480Z,99057.00
2022-08-17T13:45:52.234Z,99060.00
2022-08-17T13:48:27.266Z,99059.00
2022-08-17T13:51:24.164Z,99052.00
2022-08-17T13:54:01.420Z,99048.00
2022-08-17T13:56:56.183Z,99048.00
2022-08-17T13:59:53.225Z,99042.00
2022-08-17T14:02:27.508Z,99039.00
2022-08-17T14:05:00.539Z,99036.00
2022-08-17T14:07:34.656Z,99027.00
2022-08-17T14:10:10.172Z,99027.00
2022-08-17T14:12:42.245Z,99036.00
2022-08-17T14:15:13.490Z,99036.00
2022-08-17T14:17:41.803Z,99028.00
2022-08-17T14:20:14.745Z,99017.00
2022-08-17T14:22:49.388Z,99022.00
2022-08-17T14:25:21.071Z,99027.00
2022-08-17T14:27:53.145Z,99023.00
2022-08-17T14:30:24.993Z,99030.00
2022-08-17T14:32:54.860Z,99029.00
2022-08-17T14:35:27.404Z,99035.00
2022-08-17T14:37:55.509Z,99029.00
2022-08-17T14:40:25.762Z,99034.00
2022-08-17T14:42:57.855Z,99034.00
2022-08-17T14:45:33.142Z,99049.00
2022-08-17T14:48:07.730Z,99026.00
2022-08-17T14:50:41.578Z,99028.00
2022-08-17T14:53:12.383Z,99036.00
2022-08-17T14:55:41.721Z,99032.00
2022-08-17T14:58:10.326Z,99036.00
2022-08-17T15:00:39.498Z,99032.00
2022-08-17T15:03:07.484Z,99033.00
2022-08-17T15:05:39.905Z,99024.00
2022-08-17T15:08:08.452Z,99036.00
2022-08-17T15:10:39.059Z,99037.00
2022-08-17T15:13:18.125Z,99029.00
2022-08-17T15:15:46.240Z,99032.00
2022-08-17T15:18:14.297Z,99024.00
2022-08-17T15:20:45.420Z,99024.00
2022-08-17T15:23:14.704Z,99019.00
2022-08-17T15:25:43.814Z,99017.00
2022-08-17T15:28:12.711Z,99007.00
2022-08-17T15:30:42.979Z,99007.00
2022-08-17T15:33:16.238Z,98966.00
2022-08-17T15:35:46.427Z,99014.00
2022-08-17T15:38:15.015Z,98994.00
2022-08-17T15:40:48.164Z,99010.00
2022-08-17T15:43:23.468Z,99002.00
2022-08-17T15:46:03.482Z,98996.00
2022-08-17T15:48:43.834Z,99000.00
2022-08-17T15:51:19.347Z,98996.00
2022-08-17T15:53:56.584Z,98979.00
2022-08-17T15:56:26.861Z,98983.00
2022-08-17T15:58:55.544Z,98986.00
2022-08-17T16:01:42.289Z,98996.00
2022-08-17T16:25:23.485Z,98993.00
2022-08-17T16:28:11.978Z,98991.00
2022-08-17T16:30:41.287Z,98991.00
2022-08-17T16:33:12.328Z,98994.00
2022-08-17T16:35:41.814Z,98987.00
2022-08-17T16:38:10.851Z,98984.00
2022-08-17T16:40:40.455Z,98983.00
2022-08-17T16:43:11.988Z,98972.00
2022-08-17T16:45:40.815Z,98972.00
2022-08-17T16:48:09.742Z,98976.00
2022-08-17T16:50:38.847Z,98970.00
2022-08-17T16:53:10.662Z,98979.00
2022-08-17T16:55:40.396Z,98979.00
2022-08-17T16:58:08.883Z,98977.00
2022-08-17T17:00:37.931Z,98976.00
2022-08-17T17:03:19.096Z,98980.00
2022-08-17T17:06:03.762Z,98984.00
2022-08-17T17:08:44.511Z,98988.00
2022-08-17T17:11:21.101Z,98993.00
2022-08-17T17:13:57.803Z,98994.00
2022-08-17T17:16:37.918Z,98985.00
2022-08-17T17:19:15.928Z,98982.00
2022-08-17T17:21:52.834Z,98996.00
2022-08-17T17:24:33.249Z,98995.00
2022-08-17T17:27:23.639Z,98987.00
2022-08-17T17:30:08.479Z,98984.00
2022-08-17T17:32:41.539Z,98989.00
2022-08-17T17:35:22.394Z,98994.00
2022-08-17T17:37:53.584Z,98998.00
2022-08-17T17:40:29.747Z,99000.00
2022-08-17T17:43:20.830Z,98997.00
2022-08-17T17:46:26.525Z,99004.00
2022-08-17T17:48:47.951Z,99002.00
2022-08-17T17:51:58.175Z,99007.00
2022-08-17T17:54:33.345Z,99002.00
2022-08-17T17:57:15.215Z,99004.00
2022-08-17T18:00:04.421Z,98997.00
2022-08-17T18:02:58.303Z,99011.00
2022-08-17T18:05:52.656Z,99011.00
2022-08-17T18:08:40.233Z,99009.00
2022-08-17T18:11:34.890Z,99013.00
2022-08-17T18:14:20.667Z,99014.00
2022-08-17T18:16:58.292Z,99016.00
2022-08-17T18:19:29.912Z,99017.00
2022-08-17T18:22:08.100Z,99017.00
2022-08-17T18:24:46.916Z,99017.00
2022-08-17T18:27:26.045Z,99014.00
2022-08-17T18:29:56.831Z,99015.00
2022-08-17T18:32:38.413Z,99013.00
2022-08-17T18:35:32.807Z,99019.00
2022-08-17T18:38:23.110Z,99015.00
2022-08-17T18:41:02.181Z,99014.00
2022-08-17T18:43:43.994Z,99013.00
2022-08-17T18:46:30.094Z,99011.00
2022-08-17T18:49:08.453Z,98998.00
2022-08-17T18:51:42.785Z,99006.00
2022-08-17T18:54:20.169Z,99005.00
2022-08-17T18:56:55.622Z,99013.00
2022-08-17T18:59:39.662Z,99018.00
2022-08-17T19:02:38.654Z,99017.00
2022-08-17T19:05:28.970Z,99021.00
2022-08-17T19:08:20.514Z,99034.00
2022-08-17T19:10:52.883Z,99018.00
2022-08-17T19:13:29.286Z,99028.00
2022-08-17T19:16:14.162Z,99029.00
2022-08-17T19:18:51.929Z,99014.00
2022-08-17T19:21:26.464Z,99016.00
2022-08-17T19:24:04.730Z,99019.00
2022-08-17T19:26:55.382Z,99015.00
2022-08-17T19:29:35.829Z,99017.00
2022-08-17T19:32:05.237Z,99019.00
2022-08-17T19:34:37.549Z,99010.00
2022-08-17T19:37:22.360Z,99012.00
2022-08-17T19:40:03.678Z,99010.00
2022-08-17T19:42:47.564Z,99008.00
2022-08-17T19:45:34.614Z,99007.00
2022-08-17T19:48:22.821Z,99003.00
2022-08-17T19:50:59.847Z,99002.00
2022-08-17T19:54:03.925Z,99010.00
2022-08-17T19:56:38.757Z,99005.00
2022-08-17T19:59:16.723Z,99007.00
2022-08-17T20:01:51.018Z,99003.00
2022-08-17T20:04:34.806Z,99000.00
2022-08-17T20:07:09.007Z,99003.00
2022-08-17T20:09:43.607Z,98997.00
2022-08-17T20:12:18.166Z,99001.00
2022-08-17T20:14:53.693Z,99001.00
2022-08-17T20:17:28.637Z,98998.00
2022-08-17T20:20:19.694Z,99013.00
2022-08-17T20:22:55.647Z,99005.00
2022-08-17T20:25:36.419Z,99006.00
2022-08-17T20:28:21.005Z,99004.00
2022-08-17T20:30:50.750Z,99002.00
2022-08-17T20:33:29.637Z,99001.00
2022-08-17T20:36:17.483Z,99008.00
2022-08-17T20:38:51.908Z,98998.00
2022-08-17T20:41:23.659Z,99000.00
2022-08-17T20:44:05.147Z,99001.00
2022-08-17T20:46:57.796Z,99013.00
2022-08-17T20:49:41.280Z,99013.00
2022-08-17T20:52:14.099Z,99014.00
2022-08-17T20:54:48.008Z,99009.00
2022-08-17T20:57:49.507Z,99018.00
2022-08-17T21:00:44.733Z,99010.00
2022-08-17T21:03:51.934Z,99006.00
2022-08-17T21:06:24.965Z,99011.00
2022-08-17T21:08:58.867Z,99002.00
2022-08-17T21:12:04.119Z,99004.00
2022-08-17T21:15:00.850Z,99004.00
2022-08-17T21:17:42.970Z,99005.00
2022-08-17T21:20:33.090Z,99024.00
2022-08-17T21:23:27.396Z,99029.00
2022-08-17T21:26:18.494Z,99029.00
2022-08-17T21:29:29.775Z,99030.00
2022-08-17T21:32:24.343Z,99035.00
2022-08-17T21:35:26.697Z,99038.00
2022-08-17T21:38:03.825Z,99039.00
2022-08-17T21:40:35.033Z,99042.00
2022-08-17T21:43:23.576Z,99048.00
2022-08-17T21:46:06.170Z,99052.00
2022-08-17T21:48:45.220Z,99050.00
2022-08-17T21:51:22.850Z,99042.00
2022-08-17T21:53:53.663Z,99047.00
2022-08-17T21:56:26.346Z,99039.00
2022-08-17T21:59:00.208Z,99048.00
2022-08-17T22:01:34.223Z,99039.00
2022-08-17T22:04:19.789Z,99051.00
2022-08-17T22:06:57.308Z,99052.00
2022-08-17T22:09:31.583Z,99043.00
2022-08-17T22:12:09.867Z,99038.00
2022-08-17T22:14:52.629Z,99038.00
2022-08-17T22:17:26.369Z,99038.00
2022-08-17T22:20:00.578Z,99043.00
2022-08-17T22:22:35.342Z,99044.00
2022-08-17T22:25:22.111Z,99040.00
2022-08-17T22:27:56.557Z,99038.00
2022-08-17T22:30:34.659Z,99047.00
2022-08-17T22:33:35.460Z,99039.00
2022-08-17T22:36:25.911Z,99039.00
2022-08-17T22:38:59.502Z,99050.00
2022-08-17T22:41:34.719Z,99050.00
2022-08-17T22:44:15.321Z,99052.00
2022-08-17T22:46:55.320Z,99050.00
2022-08-17T22:49:30.562Z,99055.00
2022-08-17T22:52:23.453Z,99059.00
2022-08-17T22:55:32.880Z,99071.00
2022-08-17T22:58:19.806Z,99073.00
2022-08-17T23:00:50.364Z,99077.00
2022-08-17T23:03:22.285Z,99071.00
2022-08-17T23:06:09.524Z,99086.00
2022-08-17T23:08:47.912Z,99075.00
2022-08-17T23:11:15.929Z,99072.00
2022-08-17T23:13:44.474Z,99069.00
2022-08-17T23:16:14.946Z,99063.00
2022-08-17T23:18:43.199Z,99057.00
2022-08-17T23:21:12.464Z,99057.00
2022-08-17T23:23:44.067Z,99065.00
2022-08-17T23:26:12.113Z,99067.00
2022-08-17T23:28:41.063Z,99061.00
2022-08-17T23:31:09.420Z,99066.00
2022-08-17T23:33:39.323Z,99062.00
2022-08-17T23:36:09.695Z,99053.00
2022-08-17T23:38:38.968Z,99054.00
2022-08-17T23:41:15.296Z,99048.00
2022-08-17T23:43:48.644Z,99042.00
2022-08-17T23:46:17.410Z,99048.00
2022-08-17T23:48:45.895Z,99047.00
2022-08-17T23:51:20.364Z,99054.00
2022-08-17T23:53:55.479Z,99050.00
2022-08-17T23:56:25.950Z,99052.00
2022-08-17T23:58:56.229Z,99044.00
